createdAt,value
2017-09-14T00:01:29.195Z,13.70
2017-09-14T00:03:57.369Z,13.80
2017-09-14T00:06:26.005Z,13.80
2017-09-14T00:08:53.432Z,13.80
2017-09-14T00:11:21.739Z,13.90
2017-09-14T00:13:49.195Z,13.90
2017-09-14T00:16:16.598Z,13.90
2017-09-14T00:18:44.775Z,14.00
2017-09-14T00:21:12.196Z,14.00
2017-09-14T00:23:39.618Z,14.00
2017-09-14T00:26:07.043Z,14.00
2017-09-14T00:28:35.210Z,13.90
2017-09-14T00:31:02.626Z,13.90
2017-09-14T00:33:30.051Z,13.90
2017-09-14T00:35:57.458Z,13.80
2017-09-14T00:38:25.642Z,13.80
2017-09-14T00:40:53.875Z,13.70
2017-09-14T00:43:21.282Z,13.70
2017-09-14T00:45:48.706Z,13.70
2017-09-14T00:48:16.915Z,13.60
2017-09-14T00:50:44.331Z,13.60
2017-09-14T00:53:11.756Z,13.60
2017-09-14T00:55:39.173Z,13.60
2017-09-14T00:58:07.372Z,13.60
2017-09-14T01:00:35.459Z,13.60
2017-09-14T01:03:02.919Z,13.60
2017-09-14T01:05:30.339Z,13.50
2017-09-14T01:07:58.564Z,13.50
2017-09-14T01:10:25.988Z,13.50
2017-09-14T01:12:53.403Z,13.50
2017-09-14T01:15:39.477Z,13.50
2017-09-14T01:18:06.905Z,13.50
2017-09-14T01:20:34.344Z,13.50
2017-09-14T01:23:01.756Z,13.50
2017-09-14T01:25:29.933Z,13.50
2017-09-14T01:27:58.119Z,13.40
2017-09-14T01:30:26.326Z,13.40
2017-09-14T01:32:53.743Z,13.40
2017-09-14T01:35:21.918Z,13.30
2017-09-14T01:37:50.129Z,13.20
2017-09-14T01:40:17.554Z,13.20
2017-09-14T01:42:45.737Z,13.10
2017-09-14T01:45:13.934Z,13.10
2017-09-14T01:47:41.358Z,13.10
2017-09-14T01:50:09.564Z,13.00
2017-09-14T01:52:37.056Z,13.00
2017-09-14T01:55:04.484Z,13.00
2017-09-14T01:57:32.347Z,12.90
2017-09-14T01:59:59.776Z,12.90
2017-09-14T02:02:27.216Z,12.90
2017-09-14T02:04:56.134Z,12.80
2017-09-14T02:07:23.554Z,12.80
2017-09-14T02:09:52.479Z,12.80
2017-09-14T02:12:19.913Z,12.80
2017-09-14T02:14:48.105Z,12.70
2017-09-14T02:17:15.550Z,12.70
2017-09-14T02:19:43.728Z,12.70
2017-09-14T02:22:11.934Z,12.60
2017-09-14T02:24:39.361Z,12.60
2017-09-14T02:27:07.540Z,12.60
2017-09-14T02:29:34.970Z,12.60
2017-09-14T02:32:03.162Z,12.60
2017-09-14T02:34:31.391Z,12.50
2017-09-14T02:36:58.821Z,12.50
2017-09-14T02:39:26.234Z,12.50
2017-09-14T02:41:54.418Z,12.40
2017-09-14T02:44:22.628Z,12.40
2017-09-14T02:46:50.039Z,12.30
2017-09-14T02:49:18.228Z,12.30
2017-09-14T02:51:46.988Z,12.30
2017-09-14T02:54:14.995Z,12.20
2017-09-14T02:56:42.940Z,12.30
2017-09-14T02:59:10.445Z,12.30
2017-09-14T03:01:37.867Z,12.30
2017-09-14T03:04:06.091Z,12.30
2017-09-14T03:06:33.503Z,12.30
2017-09-14T03:09:00.923Z,12.30
2017-09-14T03:11:28.342Z,12.30
2017-09-14T03:13:55.758Z,12.30
2017-09-14T03:16:23.946Z,12.20
2017-09-14T03:18:51.395Z,12.10
2017-09-14T03:21:19.575Z,12.20
2017-09-14T03:23:46.994Z,12.20
2017-09-14T03:26:14.935Z,12.20
2017-09-14T03:28:42.358Z,12.20
2017-09-14T03:31:09.855Z,12.10
2017-09-14T03:33:37.291Z,12.20
2017-09-14T03:36:04.711Z,12.20
2017-09-14T03:38:32.912Z,12.20
2017-09-14T03:41:00.343Z,12.10
2017-09-14T03:43:28.536Z,12.10
2017-09-14T03:45:55.952Z,12.10
2017-09-14T03:48:24.898Z,12.00
2017-09-14T03:50:52.323Z,12.00
2017-09-14T03:53:20.543Z,12.00
2017-09-14T03:55:47.986Z,12.00
2017-09-14T03:58:15.422Z,11.90
2017-09-14T04:00:42.847Z,12.00
2017-09-14T04:03:11.073Z,12.00
2017-09-14T04:05:38.532Z,12.00
2017-09-14T04:08:06.002Z,12.00
2017-09-14T04:10:33.820Z,12.00
2017-09-14T04:13:02.027Z,12.00
2017-09-14T04:15:29.486Z,11.90
2017-09-14T04:17:56.912Z,12.00
2017-09-14T04:20:24.351Z,12.00
2017-09-14T04:22:53.467Z,12.00
2017-09-14T04:25:20.896Z,11.90
2017-09-14T04:27:48.327Z,12.00
2017-09-14T04:30:15.763Z,11.90
2017-09-14T04:32:43.190Z,11.90
2017-09-14T04:35:11.390Z,12.00
2017-09-14T04:37:38.847Z,11.90
2017-09-14T04:40:06.316Z,12.00
2017-09-14T04:42:33.739Z,12.00
2017-09-14T04:45:01.216Z,12.00
2017-09-14T04:47:28.650Z,12.00
2017-09-14T04:49:56.095Z,12.10
2017-09-14T04:52:23.507Z,12.10
2017-09-14T04:54:50.962Z,12.10
2017-09-14T04:57:18.401Z,12.10
2017-09-14T04:59:46.363Z,12.10
2017-09-14T05:02:13.829Z,12.10
2017-09-14T05:04:41.278Z,12.10
2017-09-14T05:07:08.739Z,12.20
2017-09-14T05:09:36.199Z,12.20
2017-09-14T05:12:03.649Z,12.20
2017-09-14T05:14:31.726Z,12.20
2017-09-14T05:16:59.162Z,12.20
2017-09-14T05:19:26.578Z,12.20
2017-09-14T05:21:54.006Z,12.20
2017-09-14T05:24:21.458Z,12.20
2017-09-14T05:26:48.904Z,12.20
2017-09-14T05:29:16.346Z,12.20
2017-09-14T05:31:43.762Z,12.20
2017-09-14T05:34:11.184Z,12.30
2017-09-14T05:36:38.639Z,12.30
2017-09-14T05:39:06.124Z,12.30
2017-09-14T05:41:33.651Z,12.30
2017-09-14T05:44:01.054Z,12.30
2017-09-14T05:46:29.276Z,12.30
2017-09-14T05:48:56.706Z,12.30
2017-09-14T05:51:24.118Z,12.30
2017-09-14T05:53:51.552Z,12.30
2017-09-14T05:56:19.038Z,12.40
2017-09-14T05:58:46.634Z,12.40
2017-09-14T06:01:14.802Z,12.50
2017-09-14T06:03:43.005Z,12.50
2017-09-14T06:06:10.435Z,12.50
2017-09-14T06:08:38.639Z,12.50
2017-09-14T06:11:06.101Z,12.40
2017-09-14T06:13:33.515Z,12.40
2017-09-14T06:16:01.722Z,12.40
2017-09-14T06:18:29.283Z,12.40
2017-09-14T06:20:56.710Z,12.50
2017-09-14T06:23:24.923Z,12.50
2017-09-14T06:25:52.383Z,12.50
2017-09-14T06:28:19.839Z,12.50
2017-09-14T06:30:47.254Z,12.60
2017-09-14T06:33:14.690Z,12.60
2017-09-14T06:35:42.889Z,12.70
2017-09-14T06:38:11.088Z,12.70
2017-09-14T06:40:38.528Z,12.60
2017-09-14T06:43:05.951Z,12.70
2017-09-14T06:45:33.379Z,12.70
2017-09-14T06:48:00.827Z,12.80
2017-09-14T06:50:28.285Z,12.80
2017-09-14T06:52:55.714Z,12.80
2017-09-14T06:55:23.908Z,12.80
2017-09-14T06:57:51.787Z,12.80
2017-09-14T07:00:19.842Z,12.80
2017-09-14T07:02:47.251Z,12.90
2017-09-14T07:05:15.433Z,13.00
2017-09-14T07:07:43.676Z,13.00
2017-09-14T07:10:11.126Z,13.00
2017-09-14T07:12:38.630Z,13.10
2017-09-14T07:15:06.134Z,13.20
2017-09-14T07:17:33.581Z,13.00
2017-09-14T07:20:01.006Z,13.00
2017-09-14T07:22:28.435Z,13.10
2017-09-14T07:24:55.872Z,13.10
2017-09-14T07:27:23.331Z,13.20
2017-09-14T07:29:52.262Z,13.10
2017-09-14T07:32:19.755Z,13.10
2017-09-14T07:34:47.180Z,13.20
2017-09-14T07:37:14.611Z,13.20
2017-09-14T07:39:42.786Z,13.30
2017-09-14T07:42:11.119Z,13.30
2017-09-14T07:44:38.550Z,13.40
2017-09-14T07:47:06.466Z,13.40
2017-09-14T07:49:33.918Z,13.40
2017-09-14T07:52:01.453Z,13.40
2017-09-14T07:54:28.909Z,13.40
2017-09-14T07:56:56.368Z,13.40
2017-09-14T07:59:24.647Z,13.50
2017-09-14T08:01:52.058Z,13.50
2017-09-14T08:04:20.480Z,13.50
2017-09-14T08:06:47.910Z,13.50
2017-09-14T08:09:15.366Z,13.50
2017-09-14T08:11:42.787Z,13.50
2017-09-14T08:14:10.210Z,13.70
2017-09-14T08:16:37.622Z,13.80
2017-09-14T08:19:05.047Z,13.90
2017-09-14T08:21:32.490Z,13.90
2017-09-14T08:23:59.919Z,14.10
2017-09-14T08:26:27.319Z,14.10
2017-09-14T08:28:54.749Z,14.20
2017-09-14T08:31:22.173Z,14.30
2017-09-14T08:33:49.954Z,14.30
2017-09-14T08:36:17.431Z,14.20
2017-09-14T08:38:44.885Z,14.10
2017-09-14T08:41:12.311Z,14.10
2017-09-14T08:43:39.742Z,14.20
2017-09-14T08:46:07.242Z,14.20
2017-09-14T08:48:34.669Z,14.30
2017-09-14T08:51:02.882Z,14.30
2017-09-14T08:53:31.835Z,14.30
2017-09-14T08:55:59.263Z,14.30
2017-09-14T08:58:27.468Z,14.50
2017-09-14T09:00:54.895Z,14.40
2017-09-14T09:03:23.942Z,14.40
2017-09-14T09:05:51.342Z,14.40
2017-09-14T09:08:19.340Z,14.40
2017-09-14T09:10:46.822Z,14.50
2017-09-14T09:13:15.327Z,14.60
2017-09-14T09:15:42.811Z,14.70
2017-09-14T09:18:11.010Z,14.90
2017-09-14T09:20:38.495Z,14.90
2017-09-14T09:23:06.267Z,14.70
2017-09-14T09:25:34.056Z,14.50
2017-09-14T09:28:03.003Z,14.60
2017-09-14T09:30:30.432Z,14.60
2017-09-14T09:32:58.614Z,14.60
2017-09-14T09:35:26.464Z,14.60
2017-09-14T09:37:55.068Z,14.60
2017-09-14T09:40:22.499Z,14.50
2017-09-14T09:42:49.911Z,14.60
2017-09-14T09:45:17.335Z,14.80
2017-09-14T09:47:44.765Z,15.00
2017-09-14T09:50:12.961Z,15.10
2017-09-14T09:52:41.121Z,15.00
2017-09-14T09:55:09.330Z,15.10
2017-09-14T09:57:36.772Z,15.10
2017-09-14T10:00:04.518Z,15.10
2017-09-14T10:02:32.699Z,15.30
2017-09-14T10:05:00.116Z,15.20
2017-09-14T10:07:27.599Z,15.20
2017-09-14T10:09:55.750Z,15.10
2017-09-14T10:12:23.183Z,15.10
2017-09-14T10:14:50.611Z,15.00
2017-09-14T10:17:18.050Z,14.80
2017-09-14T10:19:46.091Z,14.70
2017-09-14T10:22:13.519Z,14.60
2017-09-14T10:24:40.955Z,14.50
2017-09-14T10:27:08.384Z,14.50
2017-09-14T10:29:35.790Z,14.30
2017-09-14T10:32:03.251Z,14.00
2017-09-14T10:34:30.658Z,13.70
2017-09-14T10:36:58.138Z,13.40
2017-09-14T10:39:25.556Z,13.20
2017-09-14T10:41:53.728Z,12.60
2017-09-14T10:44:21.942Z,12.50
2017-09-14T10:46:49.908Z,12.50
2017-09-14T10:49:17.327Z,12.20
2017-09-14T10:51:45.503Z,12.50
2017-09-14T10:54:13.710Z,12.70
2017-09-14T10:56:41.136Z,12.70
2017-09-14T10:59:09.308Z,13.00
2017-09-14T11:01:37.498Z,13.20
2017-09-14T11:04:04.925Z,13.20
2017-09-14T11:06:32.342Z,13.20
2017-09-14T11:08:59.788Z,13.20
2017-09-14T11:11:27.205Z,13.30
2017-09-14T11:13:55.418Z,13.40
2017-09-14T11:16:22.834Z,13.30
2017-09-14T11:18:51.027Z,13.20
2017-09-14T11:21:18.461Z,13.20
2017-09-14T11:23:46.640Z,13.20
2017-09-14T11:26:14.824Z,13.20
2017-09-14T11:28:42.240Z,13.10
2017-09-14T11:31:09.778Z,13.10
2017-09-14T11:33:37.187Z,13.10
2017-09-14T11:36:04.606Z,13.10
2017-09-14T11:38:32.045Z,13.10
2017-09-14T11:40:59.487Z,13.20
2017-09-14T11:43:27.779Z,13.20
2017-09-14T11:45:55.183Z,13.30
2017-09-14T11:48:23.367Z,13.30
2017-09-14T11:50:50.779Z,13.40
2017-09-14T11:53:18.304Z,13.30
2017-09-14T11:55:45.754Z,13.70
2017-09-14T11:58:13.187Z,14.10
2017-09-14T12:00:41.372Z,16.00
2017-09-14T12:03:08.844Z,16.00
2017-09-14T12:05:36.426Z,17.90
2017-09-14T12:08:03.860Z,18.50
2017-09-14T12:10:31.344Z,18.80
2017-09-14T12:12:58.750Z,18.60
2017-09-14T12:15:26.253Z,19.10
2017-09-14T12:17:54.586Z,18.60
2017-09-14T12:20:22.813Z,17.90
2017-09-14T12:22:50.239Z,17.40
2017-09-14T12:25:18.255Z,18.00
2017-09-14T12:27:45.676Z,19.00
2017-09-14T12:30:13.084Z,20.30
2017-09-14T12:32:41.255Z,22.90
2017-09-14T12:35:09.472Z,23.70
2017-09-14T12:37:36.862Z,23.70
2017-09-14T12:40:04.386Z,24.00
2017-09-14T12:42:31.779Z,24.50
2017-09-14T12:44:59.297Z,23.70
2017-09-14T12:47:26.799Z,23.80
2017-09-14T12:49:54.236Z,24.50
2017-09-14T12:52:21.663Z,23.70
2017-09-14T12:54:49.074Z,22.40
2017-09-14T12:57:16.499Z,22.00
2017-09-14T12:59:43.923Z,22.40
2017-09-14T13:02:11.322Z,23.20
2017-09-14T13:04:38.747Z,22.70
2017-09-14T13:07:06.186Z,22.40
2017-09-14T13:09:33.595Z,21.60
2017-09-14T13:12:01.001Z,21.50
2017-09-14T13:14:28.431Z,21.70
2017-09-14T13:16:56.612Z,23.20
2017-09-14T13:19:24.788Z,22.40
2017-09-14T13:21:52.979Z,22.10
2017-09-14T13:24:20.391Z,22.10
2017-09-14T13:26:48.007Z,21.40
2017-09-14T13:29:15.407Z,21.50
2017-09-14T13:31:42.852Z,23.20
2017-09-14T13:34:10.894Z,24.10
2017-09-14T13:36:38.315Z,25.40
2017-09-14T13:39:05.737Z,25.00
2017-09-14T13:41:33.147Z,25.10
2017-09-14T13:44:00.587Z,22.90
2017-09-14T13:46:28.764Z,20.70
2017-09-14T13:48:56.183Z,20.70
2017-09-14T13:51:23.619Z,21.60
2017-09-14T13:53:51.031Z,22.80
2017-09-14T13:56:18.507Z,22.00
2017-09-14T13:58:45.991Z,22.10
2017-09-14T14:01:13.400Z,23.40
2017-09-14T14:03:40.830Z,23.70
2017-09-14T14:06:09.743Z,21.60
2017-09-14T14:08:37.915Z,20.40
2017-09-14T14:11:05.339Z,20.30
2017-09-14T14:13:32.751Z,19.10
2017-09-14T14:16:00.224Z,18.30
2017-09-14T14:18:27.617Z,17.50
2017-09-14T14:20:55.023Z,17.00
2017-09-14T14:23:22.476Z,16.60
2017-09-14T14:25:49.882Z,16.40
2017-09-14T14:28:17.298Z,16.30
2017-09-14T14:30:44.726Z,16.20
2017-09-14T14:33:12.899Z,15.90
2017-09-14T14:35:40.311Z,15.90
2017-09-14T14:38:08.555Z,15.90
2017-09-14T14:40:35.962Z,15.80
2017-09-14T14:43:04.186Z,15.70
2017-09-14T14:45:31.591Z,15.70
2017-09-14T14:47:59.784Z,15.50
2017-09-14T14:50:28.027Z,15.50
2017-09-14T14:52:55.451Z,15.40
2017-09-14T14:55:22.859Z,15.40
2017-09-14T14:57:51.054Z,15.30
2017-09-14T15:00:18.488Z,15.30
2017-09-14T15:02:46.663Z,15.30
2017-09-14T15:05:14.842Z,15.30
2017-09-14T15:07:42.331Z,15.20
2017-09-14T15:10:09.783Z,15.20
2017-09-14T15:12:37.194Z,15.20
2017-09-14T15:15:06.142Z,15.20
2017-09-14T15:17:33.846Z,15.10
2017-09-14T15:20:01.247Z,15.10
2017-09-14T15:22:28.928Z,15.20
2017-09-14T15:24:56.335Z,15.20
2017-09-14T15:27:24.888Z,15.20
2017-09-14T15:29:52.320Z,15.10
2017-09-14T15:32:19.767Z,15.10
2017-09-14T15:34:47.220Z,15.00
2017-09-14T15:37:20.568Z,15.00
2017-09-14T15:39:53.767Z,15.00
2017-09-14T15:42:27.742Z,14.90
2017-09-14T15:45:00.884Z,14.90
2017-09-14T15:47:29.857Z,14.90
2017-09-14T15:50:02.992Z,14.80
2017-09-14T15:52:30.512Z,14.80
2017-09-14T15:54:58.720Z,14.70
2017-09-14T15:57:26.252Z,14.70
2017-09-14T15:59:54.411Z,14.20
2017-09-14T16:02:22.594Z,13.60
2017-09-14T16:04:50.811Z,13.20
2017-09-14T16:07:18.223Z,13.20
2017-09-14T16:09:46.406Z,12.90
2017-09-14T16:12:13.843Z,12.80
2017-09-14T16:14:42.041Z,12.80
2017-09-14T16:17:09.450Z,12.80
2017-09-14T16:19:36.924Z,12.80
2017-09-14T16:22:04.363Z,12.80
2017-09-14T16:24:31.795Z,12.80
2017-09-14T16:26:59.224Z,12.70
2017-09-14T16:29:26.654Z,12.80
2017-09-14T16:31:54.831Z,12.80
2017-09-14T16:34:23.801Z,12.80
2017-09-14T16:36:51.991Z,12.70
2017-09-14T16:39:20.167Z,12.70
2017-09-14T16:41:48.360Z,12.80
2017-09-14T16:44:16.545Z,12.70
2017-09-14T16:46:43.975Z,12.70
2017-09-14T16:49:12.207Z,12.60
2017-09-14T16:51:39.658Z,12.60
2017-09-14T16:54:07.089Z,12.60
2017-09-14T16:56:34.528Z,12.60
2017-09-14T16:59:02.743Z,12.40
2017-09-14T17:01:30.153Z,12.40
2017-09-14T17:03:58.345Z,12.40
2017-09-14T17:06:25.813Z,12.30
2017-09-14T17:08:53.248Z,12.40
2017-09-14T17:11:20.673Z,12.30
2017-09-14T17:13:48.103Z,12.30
2017-09-14T17:16:15.542Z,12.20
2017-09-14T17:18:42.967Z,12.10
2017-09-14T17:21:11.161Z,12.20
2017-09-14T17:23:39.340Z,12.20
2017-09-14T17:26:06.803Z,12.10
2017-09-14T17:28:34.204Z,12.10
2017-09-14T17:31:01.635Z,12.00
2017-09-14T17:33:29.034Z,11.90
2017-09-14T17:35:56.855Z,11.90
2017-09-14T17:38:24.354Z,11.70
2017-09-14T17:40:52.555Z,11.80
2017-09-14T17:43:19.982Z,11.80
2017-09-14T17:45:48.187Z,11.80
2017-09-14T17:48:15.604Z,11.70
2017-09-14T17:50:43.051Z,11.70
2017-09-14T17:53:10.480Z,11.80
2017-09-14T17:55:37.922Z,11.80
2017-09-14T17:58:05.380Z,11.80
2017-09-14T18:00:32.783Z,11.80
2017-09-14T18:03:00.978Z,11.70
2017-09-14T18:05:28.422Z,11.70
2017-09-14T18:07:56.611Z,11.80
2017-09-14T18:10:24.040Z,11.70
2017-09-14T18:12:52.240Z,11.80
2017-09-14T18:15:20.407Z,11.80
2017-09-14T18:17:48.587Z,11.80
2017-09-14T18:20:16.034Z,11.80
2017-09-14T18:22:44.598Z,11.80
2017-09-14T18:25:12.779Z,11.70
2017-09-14T18:27:40.986Z,11.80
2017-09-14T18:30:09.159Z,11.70
2017-09-14T18:32:36.582Z,11.70
2017-09-14T18:35:04.762Z,11.70
2017-09-14T18:37:32.939Z,11.70
2017-09-14T18:40:01.146Z,11.70
2017-09-14T18:42:28.605Z,11.70
2017-09-14T18:44:56.031Z,11.70
2017-09-14T18:47:24.351Z,11.70
2017-09-14T18:49:51.763Z,11.70
2017-09-14T18:52:19.198Z,11.80
2017-09-14T18:54:46.623Z,11.80
2017-09-14T18:57:14.042Z,11.80
2017-09-14T18:59:41.468Z,11.80
2017-09-14T19:02:10.424Z,11.80
2017-09-14T19:04:37.840Z,11.80
2017-09-14T19:07:05.273Z,11.70
2017-09-14T19:09:32.675Z,11.80
2017-09-14T19:12:00.133Z,11.80
2017-09-14T19:14:27.560Z,11.80
2017-09-14T19:16:55.047Z,11.80
2017-09-14T19:19:22.475Z,11.80
2017-09-14T19:21:49.913Z,11.80
2017-09-14T19:24:17.327Z,11.90
2017-09-14T19:26:44.744Z,11.90
2017-09-14T19:29:12.926Z,12.00
2017-09-14T19:31:40.408Z,12.00
2017-09-14T19:34:07.816Z,12.10
2017-09-14T19:36:36.650Z,12.10
2017-09-14T19:39:04.083Z,12.10
2017-09-14T19:41:31.518Z,12.10
2017-09-14T19:43:59.691Z,12.10
2017-09-14T19:46:27.884Z,12.20
2017-09-14T19:48:55.308Z,12.20
2017-09-14T19:51:22.742Z,12.20
2017-09-14T19:53:50.149Z,12.20
2017-09-14T19:56:18.339Z,12.20
2017-09-14T19:58:45.767Z,12.20
2017-09-14T20:01:13.999Z,12.30
2017-09-14T20:03:41.432Z,12.30
2017-09-14T20:06:08.891Z,12.30
2017-09-14T20:08:36.314Z,12.30
2017-09-14T20:11:04.511Z,12.30
2017-09-14T20:13:31.927Z,12.30
2017-09-14T20:15:59.415Z,12.40
2017-09-14T20:18:26.892Z,12.30
2017-09-14T20:20:54.316Z,12.40
2017-09-14T20:23:22.500Z,12.40
2017-09-14T20:25:49.930Z,12.40
2017-09-14T20:28:18.455Z,12.50
2017-09-14T20:30:45.871Z,12.40
2017-09-14T20:33:14.084Z,12.50
2017-09-14T20:35:41.477Z,12.40
2017-09-14T20:38:09.000Z,12.40
2017-09-14T20:40:36.430Z,12.50
2017-09-14T20:43:03.864Z,12.50
2017-09-14T20:45:31.282Z,12.60
2017-09-14T20:47:58.720Z,12.60
2017-09-14T20:50:26.179Z,12.60
2017-09-14T20:52:53.590Z,12.70
2017-09-14T20:55:21.780Z,12.70
2017-09-14T20:57:49.977Z,12.80
2017-09-14T21:00:17.395Z,12.70
2017-09-14T21:02:44.900Z,12.80
2017-09-14T21:05:12.362Z,12.80
2017-09-14T21:07:39.791Z,12.80
2017-09-14T21:10:08.003Z,12.90
2017-09-14T21:12:35.491Z,12.80
2017-09-14T21:15:02.906Z,12.90
2017-09-14T21:17:30.340Z,12.90
2017-09-14T21:19:57.769Z,13.00
2017-09-14T21:22:25.188Z,13.00
2017-09-14T21:24:52.659Z,13.00
2017-09-14T21:27:20.131Z,13.00
2017-09-14T21:29:47.594Z,13.00
2017-09-14T21:32:15.004Z,13.00
2017-09-14T21:34:42.473Z,13.10
2017-09-14T21:37:09.917Z,13.10
2017-09-14T21:39:37.346Z,13.10
2017-09-14T21:42:04.951Z,13.10
2017-09-14T21:47:26.414Z,13.10
2017-09-14T21:49:54.604Z,13.10
2017-09-14T21:52:22.780Z,13.10
2017-09-14T21:54:51.090Z,13.10
2017-09-14T21:57:18.550Z,13.10
2017-09-14T21:59:45.984Z,13.10
2017-09-14T22:02:13.407Z,13.10
2017-09-14T22:04:41.644Z,13.10
2017-09-14T22:07:09.111Z,13.10
2017-09-14T22:09:36.556Z,13.10
2017-09-14T22:12:04.028Z,13.00
2017-09-14T22:14:31.463Z,13.00
2017-09-14T22:16:58.884Z,13.00
2017-09-14T22:19:26.327Z,13.00
2017-09-14T22:21:54.523Z,13.00
2017-09-14T22:24:21.954Z,13.00
2017-09-14T22:26:50.184Z,13.00
2017-09-14T22:29:17.639Z,13.00
2017-09-14T22:31:45.090Z,13.00
2017-09-14T22:34:12.519Z,13.00
2017-09-14T22:36:40.011Z,13.00
2017-09-14T22:39:07.491Z,12.90
2017-09-14T22:41:34.924Z,13.00
2017-09-14T22:44:02.388Z,12.90
2017-09-14T22:46:29.838Z,12.90
2017-09-14T22:48:57.251Z,12.90
2017-09-14T22:51:24.750Z,12.90
2017-09-14T22:53:52.161Z,12.90
2017-09-14T22:56:20.348Z,12.90
2017-09-14T22:58:47.779Z,12.90
2017-09-14T23:01:15.196Z,12.90
2017-09-14T23:03:42.629Z,12.90
2017-09-14T23:06:10.051Z,12.90
2017-09-14T23:08:38.270Z,12.90
2017-09-14T23:11:05.703Z,12.90
2017-09-14T23:13:33.133Z,12.90
2017-09-14T23:16:00.553Z,12.90
2017-09-14T23:18:27.981Z,12.90
2017-09-14T23:20:55.430Z,12.90
2017-09-14T23:23:22.845Z,12.90
2017-09-14T23:25:50.295Z,12.90
2017-09-14T23:28:17.775Z,12.90
2017-09-14T23:30:45.383Z,12.90
2017-09-14T23:33:12.808Z,12.90
2017-09-14T23:35:40.255Z,12.90
2017-09-14T23:38:08.463Z,12.90
2017-09-14T23:40:35.891Z,12.90
2017-09-14T23:43:03.340Z,12.90
2017-09-14T23:45:31.531Z,12.80
2017-09-14T23:47:58.969Z,12.80
2017-09-14T23:50:27.151Z,12.80
2017-09-14T23:52:54.604Z,12.80
2017-09-14T23:55:22.779Z,12.90
2017-09-14T23:57:50.223Z,12.80
